sensor_id;sensor_type;location;lat;lon;timestamp;temperature;humidity
71184;DHT22;58887;51.980;4.464;2023-01-13T00:01:07;9.75;74.94
71184;DHT22;58887;51.980;4.464;2023-01-13T00:03:33;9.67;76.15
71184;DHT22;58887;51.980;4.464;2023-01-13T00:05:59;9.63;76.56
71184;DHT22;58887;51.980;4.464;2023-01-13T00:08:24;9.73;76.60
71184;DHT22;58887;51.980;4.464;2023-01-13T00:10:50;9.73;76.96
71184;DHT22;58887;51.980;4.464;2023-01-13T00:13:15;9.70;77.09
71184;DHT22;58887;51.980;4.464;2023-01-13T00:15:41;9.77;76.92
71184;DHT22;58887;51.980;4.464;2023-01-13T00:18:06;9.82;76.77
71184;DHT22;58887;51.980;4.464;2023-01-13T00:20:32;9.97;76.48
71184;DHT22;58887;51.980;4.464;2023-01-13T00:22:57;9.92;77.20
71184;DHT22;58887;51.980;4.464;2023-01-13T00:25:24;9.94;77.73
71184;DHT22;58887;51.980;4.464;2023-01-13T00:27:50;9.99;77.91
71184;DHT22;58887;51.980;4.464;2023-01-13T00:30:15;9.95;78.52
71184;DHT22;58887;51.980;4.464;2023-01-13T00:32:41;10.02;78.78
71184;DHT22;58887;51.980;4.464;2023-01-13T00:35:07;9.95;79.09
71184;DHT22;58887;51.980;4.464;2023-01-13T00:37:36;9.94;79.39
71184;DHT22;58887;51.980;4.464;2023-01-13T00:40:04;9.80;80.06
71184;DHT22;58887;51.980;4.464;2023-01-13T00:42:29;9.85;80.41
71184;DHT22;58887;51.980;4.464;2023-01-13T00:45:14;9.94;80.13
71184;DHT22;58887;51.980;4.464;2023-01-13T00:47:39;9.94;80.38
71184;DHT22;58887;51.980;4.464;2023-01-13T00:50:05;9.82;80.42
71184;DHT22;58887;51.980;4.464;2023-01-13T00:52:31;9.81;80.67
71184;DHT22;58887;51.980;4.464;2023-01-13T00:54:57;9.81;80.15
71184;DHT22;58887;51.980;4.464;2023-01-13T00:57:22;9.87;80.19
71184;DHT22;58887;51.980;4.464;2023-01-13T00:59:48;9.82;79.46
71184;DHT22;58887;51.980;4.464;2023-01-13T01:02:13;9.85;78.85
71184;DHT22;58887;51.980;4.464;2023-01-13T01:04:39;9.82;78.90
71184;DHT22;58887;51.980;4.464;2023-01-13T01:07:04;9.64;78.99
71184;DHT22;58887;51.980;4.464;2023-01-13T01:09:30;9.73;77.87
71184;DHT22;58887;51.980;4.464;2023-01-13T01:11:59;9.77;77.98
71184;DHT22;58887;51.980;4.464;2023-01-13T01:14:25;9.80;78.56
71184;DHT22;58887;51.980;4.464;2023-01-13T01:16:52;9.75;79.25
71184;DHT22;58887;51.980;4.464;2023-01-13T01:19:17;9.74;79.69
71184;DHT22;58887;51.980;4.464;2023-01-13T01:21:43;9.75;79.70
71184;DHT22;58887;51.980;4.464;2023-01-13T01:24:08;9.67;79.84
71184;DHT22;58887;51.980;4.464;2023-01-13T01:26:34;9.69;79.53
71184;DHT22;58887;51.980;4.464;2023-01-13T01:28:59;9.65;79.40
71184;DHT22;58887;51.980;4.464;2023-01-13T01:31:31;9.67;79.12
71184;DHT22;58887;51.980;4.464;2023-01-13T01:33:58;9.63;79.42
71184;DHT22;58887;51.980;4.464;2023-01-13T01:36:26;9.54;79.61
71184;DHT22;58887;51.980;4.464;2023-01-13T01:38:55;9.37;79.98
71184;DHT22;58887;51.980;4.464;2023-01-13T01:41:23;9.48;79.42
71184;DHT22;58887;51.980;4.464;2023-01-13T01:44:03;9.50;79.04
71184;DHT22;58887;51.980;4.464;2023-01-13T01:46:41;9.48;79.36
71184;DHT22;58887;51.980;4.464;2023-01-13T01:49:26;9.48;79.02
71184;DHT22;58887;51.980;4.464;2023-01-13T01:52:00;9.40;79.38
71184;DHT22;58887;51.980;4.464;2023-01-13T01:54:47;9.48;79.12
71184;DHT22;58887;51.980;4.464;2023-01-13T01:57:19;9.46;79.30
71184;DHT22;58887;51.980;4.464;2023-01-13T01:59:48;9.47;79.47
71184;DHT22;58887;51.980;4.464;2023-01-13T02:02:14;9.48;79.64
71184;DHT22;58887;51.980;4.464;2023-01-13T02:04:48;9.46;79.29
71184;DHT22;58887;51.980;4.464;2023-01-13T02:07:21;9.42;79.40
71184;DHT22;58887;51.980;4.464;2023-01-13T02:09:48;9.53;79.22
71184;DHT22;58887;51.980;4.464;2023-01-13T02:12:14;9.54;79.20
71184;DHT22;58887;51.980;4.464;2023-01-13T02:15:22;9.44;79.00
71184;DHT22;58887;51.980;4.464;2023-01-13T02:30:08;9.60;77.31
71184;DHT22;58887;51.980;4.464;2023-01-13T02:38:15;9.53;76.91
71184;DHT22;58887;51.980;4.464;2023-01-13T02:41:02;9.58;76.34
71184;DHT22;58887;51.980;4.464;2023-01-13T02:43:49;9.51;76.20
71184;DHT22;58887;51.980;4.464;2023-01-13T02:49:33;9.48;76.30
71184;DHT22;58887;51.980;4.464;2023-01-13T02:52:12;9.42;76.65
71184;DHT22;58887;51.980;4.464;2023-01-13T02:54:44;9.43;76.49
71184;DHT22;58887;51.980;4.464;2023-01-13T02:57:16;9.48;76.39
71184;DHT22;58887;51.980;4.464;2023-01-13T02:59:43;9.48;76.26
71184;DHT22;58887;51.980;4.464;2023-01-13T03:02:15;9.50;76.21
71184;DHT22;58887;51.980;4.464;2023-01-13T03:04:50;9.47;76.29
71184;DHT22;58887;51.980;4.464;2023-01-13T03:16:00;9.43;77.29
71184;DHT22;58887;51.980;4.464;2023-01-13T03:18:54;9.43;77.27
71184;DHT22;58887;51.980;4.464;2023-01-13T03:24:20;9.34;77.34
71184;DHT22;58887;51.980;4.464;2023-01-13T03:27:06;9.34;77.55
71184;DHT22;58887;51.980;4.464;2023-01-13T03:30:02;9.33;77.80
71184;DHT22;58887;51.980;4.464;2023-01-13T03:32:41;9.29;77.48
71184;DHT22;58887;51.980;4.464;2023-01-13T03:35:21;9.32;77.65
71184;DHT22;58887;51.980;4.464;2023-01-13T03:38:22;9.34;77.14
71184;DHT22;58887;51.980;4.464;2023-01-13T03:40:49;9.32;77.34
71184;DHT22;58887;51.980;4.464;2023-01-13T03:43:23;9.11;77.75
71184;DHT22;58887;51.980;4.464;2023-01-13T03:46:16;9.19;77.59
71184;DHT22;58887;51.980;4.464;2023-01-13T03:48:45;9.23;77.50
71184;DHT22;58887;51.980;4.464;2023-01-13T03:51:17;9.27;77.24
71184;DHT22;58887;51.980;4.464;2023-01-13T03:53:51;9.20;77.22
71184;DHT22;58887;51.980;4.464;2023-01-13T03:56:28;9.16;77.42
71184;DHT22;58887;51.980;4.464;2023-01-13T03:58:57;9.15;77.49
71184;DHT22;58887;51.980;4.464;2023-01-13T04:04:12;9.09;77.69
71184;DHT22;58887;51.980;4.464;2023-01-13T04:07:16;9.12;77.49
71184;DHT22;58887;51.980;4.464;2023-01-13T04:12:10;9.11;77.38
71184;DHT22;58887;51.980;4.464;2023-01-13T04:14:38;9.08;77.55
71184;DHT22;58887;51.980;4.464;2023-01-13T04:17:03;9.06;77.65
71184;DHT22;58887;51.980;4.464;2023-01-13T04:19:29;9.01;78.11
71184;DHT22;58887;51.980;4.464;2023-01-13T04:21:56;8.98;78.04
71184;DHT22;58887;51.980;4.464;2023-01-13T04:24:21;9.13;78.05
71184;DHT22;58887;51.980;4.464;2023-01-13T04:26:46;8.99;78.74
71184;DHT22;58887;51.980;4.464;2023-01-13T04:29:12;9.13;78.33
71184;DHT22;58887;51.980;4.464;2023-01-13T04:31:37;9.19;78.37
71184;DHT22;58887;51.980;4.464;2023-01-13T04:34:03;9.12;78.79
71184;DHT22;58887;51.980;4.464;2023-01-13T04:36:28;9.08;78.77
71184;DHT22;58887;51.980;4.464;2023-01-13T04:38:54;9.23;78.51
71184;DHT22;58887;51.980;4.464;2023-01-13T04:41:20;9.19;78.98
71184;DHT22;58887;51.980;4.464;2023-01-13T04:43:45;9.26;78.61
71184;DHT22;58887;51.980;4.464;2023-01-13T04:46:11;9.30;78.26
71184;DHT22;58887;51.980;4.464;2023-01-13T04:48:36;9.29;78.38
71184;DHT22;58887;51.980;4.464;2023-01-13T04:51:02;9.43;77.46
71184;DHT22;58887;51.980;4.464;2023-01-13T04:53:27;9.43;76.54
71184;DHT22;58887;51.980;4.464;2023-01-13T04:55:52;9.46;75.71
71184;DHT22;58887;51.980;4.464;2023-01-13T04:58:19;9.50;75.38
71184;DHT22;58887;51.980;4.464;2023-01-13T05:00:45;9.48;75.11
71184;DHT22;58887;51.980;4.464;2023-01-13T05:03:10;9.43;74.53
71184;DHT22;58887;51.980;4.464;2023-01-13T05:05:36;9.39;73.88
71184;DHT22;58887;51.980;4.464;2023-01-13T05:08:03;9.39;72.92
71184;DHT22;58887;51.980;4.464;2023-01-13T05:10:29;9.55;72.41
71184;DHT22;58887;51.980;4.464;2023-01-13T05:12:54;9.40;72.25
71184;DHT22;58887;51.980;4.464;2023-01-13T05:15:40;9.37;72.57
71184;DHT22;58887;51.980;4.464;2023-01-13T05:18:26;9.34;72.75
71184;DHT22;58887;51.980;4.464;2023-01-13T05:20:52;9.33;72.30
71184;DHT22;58887;51.980;4.464;2023-01-13T05:23:17;9.37;72.53
71184;DHT22;58887;51.980;4.464;2023-01-13T05:26:01;9.29;72.82
71184;DHT22;58887;51.980;4.464;2023-01-13T05:28:31;9.32;71.95
71184;DHT22;58887;51.980;4.464;2023-01-13T05:30:56;9.32;72.36
71184;DHT22;58887;51.980;4.464;2023-01-13T05:33:22;9.33;72.19
71184;DHT22;58887;51.980;4.464;2023-01-13T05:35:47;9.34;72.62
71184;DHT22;58887;51.980;4.464;2023-01-13T05:38:14;9.26;72.32
71184;DHT22;58887;51.980;4.464;2023-01-13T05:40:41;9.27;72.55
71184;DHT22;58887;51.980;4.464;2023-01-13T05:43:25;9.27;72.86
71184;DHT22;58887;51.980;4.464;2023-01-13T05:48:22;9.27;73.17
71184;DHT22;58887;51.980;4.464;2023-01-13T05:50:49;9.29;73.00
71184;DHT22;58887;51.980;4.464;2023-01-13T05:53:16;9.22;73.23
71184;DHT22;58887;51.980;4.464;2023-01-13T05:55:43;9.23;73.62
71184;DHT22;58887;51.980;4.464;2023-01-13T05:58:10;9.33;72.90
71184;DHT22;58887;51.980;4.464;2023-01-13T06:00:36;9.42;72.72
71184;DHT22;58887;51.980;4.464;2023-01-13T06:03:02;9.32;73.22
71184;DHT22;58887;51.980;4.464;2023-01-13T06:05:27;9.27;73.17
71184;DHT22;58887;51.980;4.464;2023-01-13T06:07:56;9.42;72.84
71184;DHT22;58887;51.980;4.464;2023-01-13T06:10:22;9.37;73.47
71184;DHT22;58887;51.980;4.464;2023-01-13T06:12:47;9.23;73.70
71184;DHT22;58887;51.980;4.464;2023-01-13T06:15:13;9.40;73.08
71184;DHT22;58887;51.980;4.464;2023-01-13T06:17:38;9.32;73.62
71184;DHT22;58887;51.980;4.464;2023-01-13T06:20:04;9.40;73.65
71184;DHT22;58887;51.980;4.464;2023-01-13T06:22:32;9.47;73.43
71184;DHT22;58887;51.980;4.464;2023-01-13T06:25:00;9.40;73.54
71184;DHT22;58887;51.980;4.464;2023-01-13T06:27:27;9.42;73.17
71184;DHT22;58887;51.980;4.464;2023-01-13T06:29:54;9.42;73.35
71184;DHT22;58887;51.980;4.464;2023-01-13T06:32:26;9.43;73.72
71184;DHT22;58887;51.980;4.464;2023-01-13T06:35:06;9.50;73.30
71184;DHT22;58887;51.980;4.464;2023-01-13T06:37:34;9.50;73.24
71184;DHT22;58887;51.980;4.464;2023-01-13T06:40:02;9.42;73.47
71184;DHT22;58887;51.980;4.464;2023-01-13T06:42:33;9.43;72.67
71184;DHT22;58887;51.980;4.464;2023-01-13T06:45:19;9.39;72.82
71184;DHT22;58887;51.980;4.464;2023-01-13T06:47:45;9.43;72.19
71184;DHT22;58887;51.980;4.464;2023-01-13T06:50:11;9.53;72.09
71184;DHT22;58887;51.980;4.464;2023-01-13T06:52:36;9.48;72.25
71184;DHT22;58887;51.980;4.464;2023-01-13T06:55:02;9.42;72.16
71184;DHT22;58887;51.980;4.464;2023-01-13T06:57:28;9.33;72.09
71184;DHT22;58887;51.980;4.464;2023-01-13T06:59:53;9.32;72.40
71184;DHT22;58887;51.980;4.464;2023-01-13T07:02:19;9.30;72.63
71184;DHT22;58887;51.980;4.464;2023-01-13T07:04:44;9.27;73.15
71184;DHT22;58887;51.980;4.464;2023-01-13T07:07:11;9.39;72.64
71184;DHT22;58887;51.980;4.464;2023-01-13T07:09:38;9.20;73.08
71184;DHT22;58887;51.980;4.464;2023-01-13T07:12:04;9.34;72.39
71184;DHT22;58887;51.980;4.464;2023-01-13T07:14:30;9.36;72.63
71184;DHT22;58887;51.980;4.464;2023-01-13T07:17:13;9.34;72.57
71184;DHT22;58887;51.980;4.464;2023-01-13T07:19:39;9.39;72.33
71184;DHT22;58887;51.980;4.464;2023-01-13T07:22:04;9.42;72.07
71184;DHT22;58887;51.980;4.464;2023-01-13T07:24:30;9.42;71.85
71184;DHT22;58887;51.980;4.464;2023-01-13T07:26:55;9.42;71.87
71184;DHT22;58887;51.980;4.464;2023-01-13T07:29:20;9.43;72.14
71184;DHT22;58887;51.980;4.464;2023-01-13T07:31:46;9.36;72.39
71184;DHT22;58887;51.980;4.464;2023-01-13T07:34:12;9.39;72.29
71184;DHT22;58887;51.980;4.464;2023-01-13T07:36:37;9.44;72.54
71184;DHT22;58887;51.980;4.464;2023-01-13T07:39:03;9.47;72.03
71184;DHT22;58887;51.980;4.464;2023-01-13T07:41:28;9.44;71.74
71184;DHT22;58887;51.980;4.464;2023-01-13T07:44:13;9.51;72.10
71184;DHT22;58887;51.980;4.464;2023-01-13T07:46:39;9.53;72.15
71184;DHT22;58887;51.980;4.464;2023-01-13T07:49:05;9.47;72.08
71184;DHT22;58887;51.980;4.464;2023-01-13T07:51:35;9.55;72.37
71184;DHT22;58887;51.980;4.464;2023-01-13T07:54:01;9.60;72.39
71184;DHT22;58887;51.980;4.464;2023-01-13T07:56:26;9.50;72.71
71184;DHT22;58887;51.980;4.464;2023-01-13T07:58:52;9.53;72.68
71184;DHT22;58887;51.980;4.464;2023-01-13T08:01:18;9.67;72.36
71184;DHT22;58887;51.980;4.464;2023-01-13T08:03:44;9.67;72.18
71184;DHT22;58887;51.980;4.464;2023-01-13T08:06:10;9.61;72.09
71184;DHT22;58887;51.980;4.464;2023-01-13T08:08:36;9.60;72.03
71184;DHT22;58887;51.980;4.464;2023-01-13T08:11:04;9.60;71.93
71184;DHT22;58887;51.980;4.464;2023-01-13T08:13:30;9.69;72.18
71184;DHT22;58887;51.980;4.464;2023-01-13T08:16:01;9.64;71.93
71184;DHT22;58887;51.980;4.464;2023-01-13T08:18:27;9.67;71.95
71184;DHT22;58887;51.980;4.464;2023-01-13T08:20:53;9.57;72.18
71184;DHT22;58887;51.980;4.464;2023-01-13T08:23:20;9.53;73.51
71184;DHT22;58887;51.980;4.464;2023-01-13T08:25:47;9.33;74.81
71184;DHT22;58887;51.980;4.464;2023-01-13T08:28:14;9.33;75.36
71184;DHT22;58887;51.980;4.464;2023-01-13T08:30:40;9.18;76.37
71184;DHT22;58887;51.980;4.464;2023-01-13T08:33:08;9.11;77.22
71184;DHT22;58887;51.980;4.464;2023-01-13T08:35:38;8.99;78.44
71184;DHT22;58887;51.980;4.464;2023-01-13T08:38:04;8.99;77.78
71184;DHT22;58887;51.980;4.464;2023-01-13T08:40:30;8.95;78.65
71184;DHT22;58887;51.980;4.464;2023-01-13T08:42:57;8.93;79.59
71184;DHT22;58887;51.980;4.464;2023-01-13T08:45:22;8.86;79.36
71184;DHT22;58887;51.980;4.464;2023-01-13T08:47:48;8.78;80.37
71184;DHT22;58887;51.980;4.464;2023-01-13T08:50:14;8.78;80.71
71184;DHT22;58887;51.980;4.464;2023-01-13T08:52:40;8.69;80.61
71184;DHT22;58887;51.980;4.464;2023-01-13T08:55:06;8.78;80.62
71184;DHT22;58887;51.980;4.464;2023-01-13T08:57:32;8.72;80.76
71184;DHT22;58887;51.980;4.464;2023-01-13T08:59:57;8.74;81.01
71184;DHT22;58887;51.980;4.464;2023-01-13T09:02:24;8.62;80.75
71184;DHT22;58887;51.980;4.464;2023-01-13T09:04:51;8.74;81.01
71184;DHT22;58887;51.980;4.464;2023-01-13T09:07:17;8.82;80.27
71184;DHT22;58887;51.980;4.464;2023-01-13T09:09:43;8.86;79.77
71184;DHT22;58887;51.980;4.464;2023-01-13T09:12:14;8.93;79.75
71184;DHT22;58887;51.980;4.464;2023-01-13T09:14:59;9.02;78.52
71184;DHT22;58887;51.980;4.464;2023-01-13T09:17:24;9.08;78.90
71184;DHT22;58887;51.980;4.464;2023-01-13T09:19:50;9.12;78.75
71184;DHT22;58887;51.980;4.464;2023-01-13T09:22:18;9.19;78.60
71184;DHT22;58887;51.980;4.464;2023-01-13T09:24:44;9.15;78.28
71184;DHT22;58887;51.980;4.464;2023-01-13T09:27:14;9.23;77.44
71184;DHT22;58887;51.980;4.464;2023-01-13T09:29:40;9.30;77.39
71184;DHT22;58887;51.980;4.464;2023-01-13T09:32:06;9.34;77.82
71184;DHT22;58887;51.980;4.464;2023-01-13T09:34:32;9.39;76.65
71184;DHT22;58887;51.980;4.464;2023-01-13T09:37:16;9.42;76.01
71184;DHT22;58887;51.980;4.464;2023-01-13T09:39:42;9.48;75.86
71184;DHT22;58887;51.980;4.464;2023-01-13T09:42:13;9.43;76.34
71184;DHT22;58887;51.980;4.464;2023-01-13T09:45:09;9.54;75.55
71184;DHT22;58887;51.980;4.464;2023-01-13T09:50:25;9.58;76.05
71184;DHT22;58887;51.980;4.464;2023-01-13T09:52:52;9.65;75.56
71184;DHT22;58887;51.980;4.464;2023-01-13T09:55:31;9.48;75.44
71184;DHT22;58887;51.980;4.464;2023-01-13T09:58:00;9.61;75.85
71184;DHT22;58887;51.980;4.464;2023-01-13T10:00:35;9.64;75.74
71184;DHT22;58887;51.980;4.464;2023-01-13T10:08:12;9.71;75.80
71184;DHT22;58887;51.980;4.464;2023-01-13T10:10:46;9.69;75.86
71184;DHT22;58887;51.980;4.464;2023-01-13T10:18:36;9.80;73.98
71184;DHT22;58887;51.980;4.464;2023-01-13T10:29:19;9.84;72.64
71184;DHT22;58887;51.980;4.464;2023-01-13T10:31:45;9.80;73.25
71184;DHT22;58887;51.980;4.464;2023-01-13T10:34:11;9.77;73.31
71184;DHT22;58887;51.980;4.464;2023-01-13T10:36:36;9.81;73.42
71184;DHT22;58887;51.980;4.464;2023-01-13T10:39:08;9.80;73.64
71184;DHT22;58887;51.980;4.464;2023-01-13T10:41:34;9.92;73.23
71184;DHT22;58887;51.980;4.464;2023-01-13T10:44:03;9.88;73.35
71184;DHT22;58887;51.980;4.464;2023-01-13T10:46:34;9.88;73.03
71184;DHT22;58887;51.980;4.464;2023-01-13T10:51:56;9.97;71.80
71184;DHT22;58887;51.980;4.464;2023-01-13T10:54:23;9.99;71.80
71184;DHT22;58887;51.980;4.464;2023-01-13T10:57:13;10.05;72.67
71184;DHT22;58887;51.980;4.464;2023-01-13T10:59:40;9.99;72.62
71184;DHT22;58887;51.980;4.464;2023-01-13T11:05:09;9.92;73.19
71184;DHT22;58887;51.980;4.464;2023-01-13T11:07:37;10.11;72.42
71184;DHT22;58887;51.980;4.464;2023-01-13T11:10:17;10.05;72.62
71184;DHT22;58887;51.980;4.464;2023-01-13T11:13:04;10.15;72.84
71184;DHT22;58887;51.980;4.464;2023-01-13T11:15:46;10.09;72.87
71184;DHT22;58887;51.980;4.464;2023-01-13T11:18:46;10.01;72.92
71184;DHT22;58887;51.980;4.464;2023-01-13T11:22:00;10.06;72.81
71184;DHT22;58887;51.980;4.464;2023-01-13T11:24:41;10.08;73.12
71184;DHT22;58887;51.980;4.464;2023-01-13T11:27:22;10.03;72.45
71184;DHT22;58887;51.980;4.464;2023-01-13T11:35:54;10.06;72.82
71184;DHT22;58887;51.980;4.464;2023-01-13T11:38:36;10.12;73.02
71184;DHT22;58887;51.980;4.464;2023-01-13T11:41:19;9.98;72.18
71184;DHT22;58887;51.980;4.464;2023-01-13T11:46:42;9.99;72.08
71184;DHT22;58887;51.980;4.464;2023-01-13T11:49:21;10.01;71.88
71184;DHT22;58887;51.980;4.464;2023-01-13T11:52:05;10.11;71.39
71184;DHT22;58887;51.980;4.464;2023-01-13T12:05:39;10.55;70.53
71184;DHT22;58887;51.980;4.464;2023-01-13T12:08:43;10.46;70.86
71184;DHT22;58887;51.980;4.464;2023-01-13T12:11:23;10.50;69.28
71184;DHT22;58887;51.980;4.464;2023-01-13T12:14:15;10.35;69.73
71184;DHT22;58887;51.980;4.464;2023-01-13T12:16:47;10.33;69.04
71184;DHT22;58887;51.980;4.464;2023-01-13T12:19:26;10.21;69.59
71184;DHT22;58887;51.980;4.464;2023-01-13T12:22:16;10.26;70.07
71184;DHT22;58887;51.980;4.464;2023-01-13T12:27:32;10.38;69.68
71184;DHT22;58887;51.980;4.464;2023-01-13T12:32:41;10.33;70.20
71184;DHT22;58887;51.980;4.464;2023-01-13T12:35:31;10.31;70.22
71184;DHT22;58887;51.980;4.464;2023-01-13T12:38:35;10.28;70.33
71184;DHT22;58887;51.980;4.464;2023-01-13T12:41:32;10.33;70.42
71184;DHT22;58887;51.980;4.464;2023-01-13T12:43:59;10.29;70.32
71184;DHT22;58887;51.980;4.464;2023-01-13T12:46:50;10.32;69.90
71184;DHT22;58887;51.980;4.464;2023-01-13T12:49:33;10.32;70.67
71184;DHT22;58887;51.980;4.464;2023-01-13T12:52:18;10.23;70.35
71184;DHT22;58887;51.980;4.464;2023-01-13T12:59:49;10.36;70.21
71184;DHT22;58887;51.980;4.464;2023-01-13T13:02:38;10.36;70.38
71184;DHT22;58887;51.980;4.464;2023-01-13T13:07:46;10.35;70.58
71184;DHT22;58887;51.980;4.464;2023-01-13T13:10:28;10.32;70.51
71184;DHT22;58887;51.980;4.464;2023-01-13T13:13:04;10.26;70.94
71184;DHT22;58887;51.980;4.464;2023-01-13T13:15:48;10.26;71.60
71184;DHT22;58887;51.980;4.464;2023-01-13T13:23:56;10.29;72.76
71184;DHT22;58887;51.980;4.464;2023-01-13T13:26:30;10.21;73.50
71184;DHT22;58887;51.980;4.464;2023-01-13T13:29:13;10.29;72.71
71184;DHT22;58887;51.980;4.464;2023-01-13T13:39:30;10.42;69.94
71184;DHT22;58887;51.980;4.464;2023-01-13T13:42:16;10.46;70.19
71184;DHT22;58887;51.980;4.464;2023-01-13T13:45:03;10.52;70.38
71184;DHT22;58887;51.980;4.464;2023-01-13T13:47:54;10.32;70.90
71184;DHT22;58887;51.980;4.464;2023-01-13T13:50:20;10.36;70.90
71184;DHT22;58887;51.980;4.464;2023-01-13T13:52:51;10.35;70.79
71184;DHT22;58887;51.980;4.464;2023-01-13T13:55:22;10.46;71.26
71184;DHT22;58887;51.980;4.464;2023-01-13T13:57:50;10.53;71.04
71184;DHT22;58887;51.980;4.464;2023-01-13T14:00:27;10.49;71.27
71184;DHT22;58887;51.980;4.464;2023-01-13T14:03:00;10.31;71.72
71184;DHT22;58887;51.980;4.464;2023-01-13T14:05:29;10.36;71.67
71184;DHT22;58887;51.980;4.464;2023-01-13T14:08:12;10.35;71.80
71184;DHT22;58887;51.980;4.464;2023-01-13T14:10:40;10.38;71.30
71184;DHT22;58887;51.980;4.464;2023-01-13T14:13:20;10.28;71.95
71184;DHT22;58887;51.980;4.464;2023-01-13T14:15:57;10.28;71.87
71184;DHT22;58887;51.980;4.464;2023-01-13T14:18:24;10.31;71.25
71184;DHT22;58887;51.980;4.464;2023-01-13T14:21:17;10.35;70.42
71184;DHT22;58887;51.980;4.464;2023-01-13T14:23:51;10.25;70.89
71184;DHT22;58887;51.980;4.464;2023-01-13T14:26:29;10.31;70.06
71184;DHT22;58887;51.980;4.464;2023-01-13T14:28:58;10.31;70.21
71184;DHT22;58887;51.980;4.464;2023-01-13T14:31:24;10.23;70.48
71184;DHT22;58887;51.980;4.464;2023-01-13T14:33:53;10.28;70.67
71184;DHT22;58887;51.980;4.464;2023-01-13T14:36:22;10.26;71.49
71184;DHT22;58887;51.980;4.464;2023-01-13T14:41:43;10.01;72.51
71184;DHT22;58887;51.980;4.464;2023-01-13T14:46:48;9.90;73.64
71184;DHT22;58887;51.980;4.464;2023-01-13T14:52:01;9.75;75.24
71184;DHT22;58887;51.980;4.464;2023-01-13T14:54:45;9.92;75.39
71184;DHT22;58887;51.980;4.464;2023-01-13T14:57:27;10.03;75.70
71184;DHT22;58887;51.980;4.464;2023-01-13T15:03:21;9.85;75.79
71184;DHT22;58887;51.980;4.464;2023-01-13T15:05:30;9.91;75.53
71184;DHT22;58887;51.980;4.464;2023-01-13T15:08:05;10.05;74.50
71184;DHT22;58887;51.980;4.464;2023-01-13T15:13:26;10.09;73.50
71184;DHT22;58887;51.980;4.464;2023-01-13T15:15:58;10.08;73.31
71184;DHT22;58887;51.980;4.464;2023-01-13T15:18:25;10.16;73.62
71184;DHT22;58887;51.980;4.464;2023-01-13T15:20:50;10.01;73.26
71184;DHT22;58887;51.980;4.464;2023-01-13T15:23:17;10.05;73.32
71184;DHT22;58887;51.980;4.464;2023-01-13T15:25:44;10.08;72.92
71184;DHT22;58887;51.980;4.464;2023-01-13T15:28:17;10.01;73.32
71184;DHT22;58887;51.980;4.464;2023-01-13T15:30:45;10.05;72.56
71184;DHT22;58887;51.980;4.464;2023-01-13T15:33:12;10.08;72.88
71184;DHT22;58887;51.980;4.464;2023-01-13T15:35:41;10.08;72.87
71184;DHT22;58887;51.980;4.464;2023-01-13T15:38:13;10.09;72.84
71184;DHT22;58887;51.980;4.464;2023-01-13T15:40:39;10.12;72.90
71184;DHT22;58887;51.980;4.464;2023-01-13T15:43:05;10.11;73.02
71184;DHT22;58887;51.980;4.464;2023-01-13T15:45:49;10.11;72.78
71184;DHT22;58887;51.980;4.464;2023-01-13T15:48:33;10.03;72.99
71184;DHT22;58887;51.980;4.464;2023-01-13T15:50:59;10.08;72.90
71184;DHT22;58887;51.980;4.464;2023-01-13T15:53:25;10.03;72.98
71184;DHT22;58887;51.980;4.464;2023-01-13T15:55:54;10.12;72.47
71184;DHT22;58887;51.980;4.464;2023-01-13T15:58:24;10.03;72.95
71184;DHT22;58887;51.980;4.464;2023-01-13T16:00:50;10.06;72.88
71184;DHT22;58887;51.980;4.464;2023-01-13T16:03:16;10.03;73.80
71184;DHT22;58887;51.980;4.464;2023-01-13T16:05:43;9.97;74.94
71184;DHT22;58887;51.980;4.464;2023-01-13T16:08:20;9.92;74.96
71184;DHT22;58887;51.980;4.464;2023-01-13T16:10:48;9.95;75.30
71184;DHT22;58887;51.980;4.464;2023-01-13T16:13:15;9.82;75.06
71184;DHT22;58887;51.980;4.464;2023-01-13T16:15:48;9.84;74.22
71184;DHT22;58887;51.980;4.464;2023-01-13T16:18:20;9.90;74.06
71184;DHT22;58887;51.980;4.464;2023-01-13T16:20:48;9.97;73.24
71184;DHT22;58887;51.980;4.464;2023-01-13T16:23:18;10.08;73.54
71184;DHT22;58887;51.980;4.464;2023-01-13T16:25:44;9.95;74.16
71184;DHT22;58887;51.980;4.464;2023-01-13T16:28:20;9.98;74.38
71184;DHT22;58887;51.980;4.464;2023-01-13T16:30:46;9.91;74.27
71184;DHT22;58887;51.980;4.464;2023-01-13T16:33:12;9.90;74.25
71184;DHT22;58887;51.980;4.464;2023-01-13T16:35:37;9.98;74.22
71184;DHT22;58887;51.980;4.464;2023-01-13T16:38:03;9.95;74.09
71184;DHT22;58887;51.980;4.464;2023-01-13T16:40:31;9.75;74.50
71184;DHT22;58887;51.980;4.464;2023-01-13T16:43:01;9.92;74.03
71184;DHT22;58887;51.980;4.464;2023-01-13T16:45:31;9.88;74.20
71184;DHT22;58887;51.980;4.464;2023-01-13T16:47:57;9.90;73.41
71184;DHT22;58887;51.980;4.464;2023-01-13T16:50:31;9.88;73.52
71184;DHT22;58887;51.980;4.464;2023-01-13T16:52:57;9.87;74.05
71184;DHT22;58887;51.980;4.464;2023-01-13T16:55:22;9.92;73.25
71184;DHT22;58887;51.980;4.464;2023-01-13T16:57:48;9.80;73.64
71184;DHT22;58887;51.980;4.464;2023-01-13T17:00:14;9.82;73.69
71184;DHT22;58887;51.980;4.464;2023-01-13T17:02:39;9.82;73.27
71184;DHT22;58887;51.980;4.464;2023-01-13T17:05:06;9.82;72.93
71184;DHT22;58887;51.980;4.464;2023-01-13T17:07:31;9.92;73.36
71184;DHT22;58887;51.980;4.464;2023-01-13T17:09:57;9.87;74.05
71184;DHT22;58887;51.980;4.464;2023-01-13T17:12:23;9.70;74.98
71184;DHT22;58887;51.980;4.464;2023-01-13T17:14:48;9.77;75.19
71184;DHT22;58887;51.980;4.464;2023-01-13T17:17:21;9.70;75.53
71184;DHT22;58887;51.980;4.464;2023-01-13T17:19:47;9.80;75.11
71184;DHT22;58887;51.980;4.464;2023-01-13T17:22:13;9.74;75.47
71184;DHT22;58887;51.980;4.464;2023-01-13T17:24:39;9.78;75.13
71184;DHT22;58887;51.980;4.464;2023-01-13T17:27:04;9.77;75.24
71184;DHT22;58887;51.980;4.464;2023-01-13T17:29:29;9.82;76.26
71184;DHT22;58887;51.980;4.464;2023-01-13T17:31:57;9.73;77.77
71184;DHT22;58887;51.980;4.464;2023-01-13T17:34:22;9.64;77.03
71184;DHT22;58887;51.980;4.464;2023-01-13T17:36:48;9.70;76.89
71184;DHT22;58887;51.980;4.464;2023-01-13T17:39:16;9.75;76.90
71184;DHT22;58887;51.980;4.464;2023-01-13T17:41:41;9.71;75.37
71184;DHT22;58887;51.980;4.464;2023-01-13T17:44:12;9.84;74.97
71184;DHT22;58887;51.980;4.464;2023-01-13T17:46:37;9.81;76.26
71184;DHT22;58887;51.980;4.464;2023-01-13T17:49:04;9.80;76.51
71184;DHT22;58887;51.980;4.464;2023-01-13T17:51:29;9.81;76.33
71184;DHT22;58887;51.980;4.464;2023-01-13T17:53:55;9.81;75.83
71184;DHT22;58887;51.980;4.464;2023-01-13T17:56:21;9.92;75.25
71184;DHT22;58887;51.980;4.464;2023-01-13T17:58:46;9.97;74.90
71184;DHT22;58887;51.980;4.464;2023-01-13T18:01:17;10.02;73.81
71184;DHT22;58887;51.980;4.464;2023-01-13T18:03:44;10.02;74.63
71184;DHT22;58887;51.980;4.464;2023-01-13T18:06:19;9.99;74.52
71184;DHT22;58887;51.980;4.464;2023-01-13T18:08:45;9.94;74.87
71184;DHT22;58887;51.980;4.464;2023-01-13T18:11:12;9.90;75.43
71184;DHT22;58887;51.980;4.464;2023-01-13T18:13:38;9.77;76.13